Time;durP1;ratioP1;P1;durP2;ratioP2;P2;SDS_P1;SDS_P2;PMS_P1;PMS_P2;Temp;Humidity;BMP_temperature;BMP_pressure;BME280_temperature;BME280_humidity;BME280_pressure;Samples;Min_cycle;Max_cycle;Signal;HPM_P1;HPM_P2
2021/12/25 00:01:40;;;;;;;8.82;6.45;;;;;;;8.07;100.00;99370.38;5096509;28;20032;-68
2021/12/25 00:04:07;;;;;;;8.82;6.63;;;;;;;8.02;100.00;99355.75;5102451;27;20519;-67
2021/12/25 00:06:34;;;;;;;8.52;6.25;;;;;;;8.15;100.00;99374.97;5095279;28;20031;-67
2021/12/25 00:08:59;;;;;;;9.57;6.63;;;;;;;8.15;100.00;99378.50;5097738;28;20432;-68
2021/12/25 00:11:25;;;;;;;7.80;5.90;;;;;;;8.19;100.00;99376.41;5092563;28;20051;-68
2021/12/25 00:13:50;;;;;;;9.80;6.32;;;;;;;8.17;100.00;99362.34;5101197;28;20342;-68
2021/12/25 00:16:16;;;;;;;10.80;6.60;;;;;;;8.20;100.00;99367.41;5104561;28;20032;-67
2021/12/25 00:18:41;;;;;;;9.25;6.28;;;;;;;8.26;100.00;99385.56;5094672;28;20043;-68
2021/12/25 00:21:08;;;;;;;8.38;5.28;;;;;;;8.27;100.00;99377.41;5092220;28;20096;-68
2021/12/25 00:23:34;;;;;;;10.15;6.22;;;;;;;8.25;100.00;99371.34;5097263;28;20027;-69
2021/12/25 00:26:08;;;;;;;11.48;6.35;;;;;;;8.31;100.00;99361.91;5091055;28;20046;-67
2021/12/25 00:35:58;;;;;;;10.38;5.65;;;;;;;8.34;100.00;99365.16;5102584;28;20031;-68
2021/12/25 00:38:23;;;;;;;12.23;6.32;;;;;;;8.33;100.00;99367.97;5098276;28;20035;-69
2021/12/25 00:40:49;;;;;;;10.00;6.45;;;;;;;8.35;100.00;99366.00;5097138;28;20062;-67
2021/12/25 00:43:14;;;;;;;10.15;6.78;;;;;;;8.37;99.86;99369.38;5092136;28;20394;-69
2021/12/25 00:45:40;;;;;;;9.13;6.20;;;;;;;8.32;99.71;99364.44;5095410;28;20551;-68
2021/12/25 00:48:05;;;;;;;7.90;5.72;;;;;;;8.29;99.32;99359.41;5089225;28;20507;-68
2021/12/25 00:50:31;;;;;;;9.60;6.22;;;;;;;8.32;99.62;99367.13;5105311;28;20122;-68
2021/12/25 00:52:56;;;;;;;9.90;6.22;;;;;;;8.32;99.67;99369.78;5098776;28;20076;-68
2021/12/25 00:55:22;;;;;;;8.02;5.57;;;;;;;8.25;99.74;99360.66;5101700;28;20066;-68
2021/12/25 00:57:47;;;;;;;9.85;6.57;;;;;;;8.40;99.52;99385.09;5103943;28;20035;-69
2021/12/25 01:00:14;;;;;;;8.45;6.10;;;;;;;8.40;99.94;99387.78;5103114;28;20027;-70
2021/12/25 01:02:42;;;;;;;9.57;6.03;;;;;;;8.32;99.79;99382.31;5102331;28;20096;-69
2021/12/25 01:05:10;;;;;;;9.75;6.32;;;;;;;8.40;100.00;99390.44;5106832;27;20028;-71
2021/12/25 01:07:36;;;;;;;7.70;5.38;;;;;;;8.43;99.65;99392.84;5107822;28;20063;-69
2021/12/25 01:10:04;;;;;;;9.20;5.85;;;;;;;8.42;99.96;99399.19;5100228;28;20031;-70
2021/12/25 01:12:37;;;;;;;9.43;5.47;;;;;;;8.43;100.00;99395.50;5089511;28;20036;-69
2021/12/25 01:15:05;;;;;;;6.88;5.43;;;;;;;8.43;99.83;99390.16;5096447;28;20031;-70
2021/12/25 01:18:02;;;;;;;9.20;5.35;;;;;;;8.46;99.57;99405.91;5097636;28;20038;-70
2021/12/25 01:30:49;;;;;;;6.63;4.65;;;;;;;8.39;99.36;99373.56;5098009;28;20081;-69
2021/12/25 01:33:34;;;;;;;7.05;5.20;;;;;;;8.37;99.03;99364.88;5104814;28;20122;-70
2021/12/25 01:39:01;;;;;;;;;;;;;;;8.46;98.99;99380.03;5098735;28;20035;-71
2021/12/25 01:49:33;;;;;;;9.20;5.07;;;;;;;8.44;98.90;99392.69;5104656;28;20931;-69
2021/12/25 01:51:59;;;;;;;6.90;5.00;;;;;;;8.42;98.50;99393.84;5103236;28;20063;-70
2021/12/25 01:54:24;;;;;;;10.15;5.35;;;;;;;8.45;98.54;99398.91;5096481;28;20062;-70
2021/12/25 01:56:50;;;;;;;9.82;6.13;;;;;;;8.41;98.60;99387.63;5094341;28;20035;-70
2021/12/25 01:59:16;;;;;;;7.80;5.38;;;;;;;8.38;98.59;99382.56;5101163;28;20030;-69
2021/12/25 02:01:41;;;;;;;8.93;5.55;;;;;;;8.42;98.41;99393.84;5093373;28;20039;-70
2021/12/25 02:04:07;;;;;;;9.07;6.00;;;;;;;8.34;98.66;99383.00;5089446;28;20458;-70
2021/12/25 02:06:33;;;;;;;7.90;5.78;;;;;;;8.40;98.56;99396.66;5093084;28;20344;-71
2021/12/25 02:08:58;;;;;;;8.75;6.03;;;;;;;8.39;98.90;99399.47;5101480;28;20035;-70
2021/12/25 02:11:24;;;;;;;9.32;5.93;;;;;;;8.41;98.96;99405.47;5100213;28;20039;-70
2021/12/25 02:13:50;;;;;;;9.38;5.85;;;;;;;8.25;98.79;99381.19;5096232;28;20028;-71
2021/12/25 02:16:20;;;;;;;9.10;6.47;;;;;;;8.29;98.59;99385.28;5098151;28;20455;-70
2021/12/25 02:21:25;;;;;;;11.43;6.43;;;;;;;8.30;99.37;99405.66;5092221;27;20038;-70
2021/12/25 02:23:51;;;;;;;10.10;6.05;;;;;;;8.30;99.11;99414.53;5103012;28;20058;-69
2021/12/25 02:26:18;;;;;;;9.85;6.32;;;;;;;8.24;99.53;99395.53;5102427;28;20028;-70
2021/12/25 02:28:44;;;;;;;9.80;6.30;;;;;;;8.25;99.58;99399.88;5095099;28;20066;-70
2021/12/25 02:31:12;;;;;;;9.98;6.85;;;;;;;8.21;99.19;99401.13;5095218;28;20063;-70
2021/12/25 02:33:38;;;;;;;10.85;6.25;;;;;;;8.26;99.64;99422.97;5106149;28;20107;-70
2021/12/25 02:36:05;;;;;;;8.80;6.28;;;;;;;8.23;99.43;99421.44;5103143;28;20020;-70
2021/12/25 02:38:31;;;;;;;9.77;6.40;;;;;;;8.21;99.47;99415.34;5095953;28;20120;-69
2021/12/25 02:40:57;;;;;;;7.85;5.75;;;;;;;8.21;100.00;99427.84;5104330;28;20492;-71
2021/12/25 02:43:22;;;;;;;10.40;6.80;;;;;;;8.13;99.49;99412.50;5103652;28;20095;-70
2021/12/25 02:45:48;;;;;;;9.00;6.32;;;;;;;8.14;100.00;99411.56;5105220;28;20031;-71
2021/12/25 02:48:17;;;;;;;9.52;6.82;;;;;;;8.07;100.00;99405.09;5103562;27;20080;-70
2021/12/25 02:50:44;;;;;;;9.90;6.65;;;;;;;8.16;100.00;99416.75;5099220;28;20573;-70
2021/12/25 02:53:11;;;;;;;9.95;6.32;;;;;;;8.14;100.00;99416.88;5102268;28;20020;-71
2021/12/25 02:55:39;;;;;;;10.70;6.97;;;;;;;8.13;100.00;99409.03;5102047;28;20104;-70
2021/12/25 02:58:05;;;;;;;8.07;5.70;;;;;;;8.14;100.00;99410.69;5104890;28;20031;-69
2021/12/25 03:01:04;;;;;;;9.10;6.68;;;;;;;8.15;100.00;99415.91;5093690;28;20031;-70
2021/12/25 03:03:30;;;;;;;9.80;6.07;;;;;;;8.12;100.00;99405.50;5106066;28;20027;-70
2021/12/25 03:05:55;;;;;;;7.93;5.93;;;;;;;8.06;100.00;99389.22;5101034;28;20408;-71
2021/12/25 03:08:21;;;;;;;8.85;6.47;;;;;;;8.09;100.00;99404.94;5101055;28;20019;-70
2021/12/25 03:10:47;;;;;;;7.80;5.97;;;;;;;8.04;100.00;99410.72;5095178;28;20027;-70
2021/12/25 03:15:45;;;;;;;9.23;6.60;;;;;;;7.98;99.87;99402.41;5104929;28;20202;-70
2021/12/25 03:18:21;;;;;;;8.35;6.25;;;;;;;7.99;100.00;99396.06;5101036;28;20031;-69
2021/12/25 03:20:48;;;;;;;9.88;6.57;;;;;;;7.93;99.64;99380.66;5101001;27;20081;-70
2021/12/25 03:23:16;;;;;;;8.88;5.90;;;;;;;7.91;100.00;99366.59;5105356;28;20035;-70
2021/12/25 03:25:43;;;;;;;9.48;6.78;;;;;;;7.90;100.00;99368.41;5100928;28;20042;-70
2021/12/25 03:28:09;;;;;;;8.45;6.00;;;;;;;7.89;100.00;99380.06;5100945;28;20023;-70
2021/12/25 03:30:38;;;;;;;10.93;5.70;;;;;;;7.77;100.00;99364.34;5095599;28;20142;-70
2021/12/25 03:33:11;;;;;;;8.05;5.38;;;;;;;7.84;100.00;99390.31;5096159;28;20467;-70
2021/12/25 03:35:36;;;;;;;8.75;6.00;;;;;;;7.80;100.00;99396.09;5099048;28;20525;-70
2021/12/25 03:38:04;;;;;;;9.07;5.97;;;;;;;7.77;100.00;99394.53;5102796;28;20028;-69
2021/12/25 03:40:29;;;;;;;9.25;6.63;;;;;;;7.75;100.00;99398.31;5099877;28;20039;-69
2021/12/25 03:42:55;;;;;;;8.00;5.65;;;;;;;7.70;100.00;99401.41;5098601;28;20419;-70
2021/12/25 03:45:21;;;;;;;9.23;6.28;;;;;;;7.73;100.00;99421.63;5101925;28;20054;-70
2021/12/25 03:47:49;;;;;;;8.32;6.15;;;;;;;7.66;100.00;99410.69;5095492;28;20023;-70
2021/12/25 03:53:10;;;;;;;9.35;6.32;;;;;;;7.68;100.00;99418.56;5101082;28;20456;-70
2021/12/25 03:58:25;;;;;;;9.23;6.50;;;;;;;7.58;100.00;99418.53;5106357;28;20156;-71
2021/12/25 04:00:58;;;;;;;10.40;7.07;;;;;;;7.58;100.00;99413.19;5099869;28;20494;-69
2021/12/25 04:03:38;;;;;;;10.07;7.18;;;;;;;7.58;100.00;99399.84;5099376;28;20360;-69
2021/12/25 04:06:08;;;;;;;8.70;6.00;;;;;;;7.56;100.00;99396.50;5099513;28;20047;-70
2021/12/25 04:08:40;;;;;;;9.63;6.25;;;;;;;7.54;100.00;99409.09;5097145;28;20024;-70
2021/12/25 04:11:12;;;;;;;9.10;6.20;;;;;;;7.45;100.00;99401.09;5097875;28;20097;-70
2021/12/25 04:13:37;;;;;;;10.10;6.50;;;;;;;7.51;100.00;99420.06;5104812;28;20031;-69
2021/12/25 04:16:03;;;;;;;11.18;6.60;;;;;;;7.46;100.00;99418.78;5098275;28;20380;-71
2021/12/25 04:18:28;;;;;;;9.48;5.82;;;;;;;7.38;100.00;99416.78;5103471;28;20023;-71
2021/12/25 04:20:54;;;;;;;8.90;5.75;;;;;;;7.31;100.00;99415.66;5097015;28;20024;-69
2021/12/25 04:23:24;;;;;;;9.82;6.90;;;;;;;7.33;100.00;99428.84;5092692;28;20024;-70
2021/12/25 04:25:50;;;;;;;10.65;6.45;;;;;;;7.17;100.00;99408.06;5102224;28;20058;-70
2021/12/25 04:28:32;;;;;;;10.18;7.00;;;;;;;7.26;100.00;99443.72;5100421;28;20024;-70
2021/12/25 05:01:59;;;;;;;9.98;6.70;;;;;;;6.69;100.00;99450.47;5098634;28;20076;-69
2021/12/25 05:06:11;;;;;;;11.00;6.78;;;;;;;6.63;100.00;99448.34;5096962;28;20027;-69
2021/12/25 05:08:36;;;;;;;9.63;6.80;;;;;;;6.56;100.00;99436.53;5101168;28;20090;-70
2021/12/25 05:11:02;;;;;;;9.40;6.30;;;;;;;6.59;100.00;99454.06;5096626;28;20032;-71
2021/12/25 05:13:28;;;;;;;9.07;6.82;;;;;;;6.49;100.00;99448.66;5095762;28;20040;-71
2021/12/25 05:15:54;;;;;;;8.43;6.60;;;;;;;6.52;100.00;99452.88;5098729;28;20042;-70
2021/12/25 05:18:19;;;;;;;9.63;6.70;;;;;;;6.51;100.00;99467.16;5098690;28;20477;-69
2021/12/25 05:20:45;;;;;;;10.77;7.07;;;;;;;6.46;100.00;99453.41;5102991;28;20036;-71
2021/12/25 05:23:10;;;;;;;10.65;7.50;;;;;;;6.50;100.00;99468.16;5099218;28;20378;-71
2021/12/25 05:25:37;;;;;;;11.02;7.28;;;;;;;6.49;100.00;99463.81;5100230;28;20037;-71
2021/12/25 05:28:02;;;;;;;11.30;8.00;;;;;;;6.50;100.00;99468.16;5102030;28;20022;-72
2021/12/25 05:30:30;;;;;;;9.43;7.20;;;;;;;6.51;100.00;99452.03;5105051;28;20371;-71
2021/12/25 05:32:55;;;;;;;10.80;7.43;;;;;;;6.48;100.00;99441.63;5104555;28;20070;-72
2021/12/25 05:35:21;;;;;;;12.15;7.50;;;;;;;6.52;100.00;99440.41;5097647;28;20031;-71
2021/12/25 05:37:47;;;;;;;9.05;6.95;;;;;;;6.54;100.00;99434.94;5099870;28;20047;-73
2021/12/25 05:40:13;;;;;;;9.73;6.50;;;;;;;6.66;100.00;99455.22;5097671;28;20506;-72
2021/12/25 05:42:39;;;;;;;10.23;7.07;;;;;;;6.72;100.00;99458.22;5103488;28;20023;-71
2021/12/25 05:45:06;;;;;;;9.60;6.35;;;;;;;6.69;100.00;99441.63;5095053;28;20511;-71
2021/12/25 05:47:32;;;;;;;10.00;6.55;;;;;;;6.84;100.00;99456.31;5102022;28;20042;-71
2021/12/25 05:49:57;;;;;;;9.48;6.88;;;;;;;6.86;100.00;99454.34;5095259;28;20042;-71
2021/12/25 05:52:23;;;;;;;9.95;7.03;;;;;;;6.89;100.00;99462.94;5106994;28;20542;-71
2021/12/25 05:54:49;;;;;;;9.40;6.82;;;;;;;6.91;100.00;99454.81;5104303;28;20100;-72
2021/12/25 05:57:16;;;;;;;10.15;7.13;;;;;;;6.98;100.00;99458.63;5092452;28;20059;-70
2021/12/25 05:59:41;;;;;;;10.63;6.72;;;;;;;6.93;100.00;99453.69;5097253;28;20024;-71
2021/12/25 06:02:07;;;;;;;11.77;7.38;;;;;;;6.99;100.00;99460.28;5094653;28;20023;-71
2021/12/25 06:04:34;;;;;;;8.65;6.18;;;;;;;7.00;100.00;99451.34;5104867;28;20023;-72
2021/12/25 06:07:00;;;;;;;9.98;6.65;;;;;;;7.06;100.00;99453.44;5100231;28;20024;-71
2021/12/25 06:09:26;;;;;;;12.93;7.93;;;;;;;7.09;100.00;99450.50;5099024;28;20019;-70
2021/12/25 06:11:52;;;;;;;9.73;7.13;;;;;;;7.14;100.00;99445.66;5092345;28;20039;-70
2021/12/25 06:14:20;;;;;;;9.45;7.18;;;;;;;7.04;100.00;99423.44;5093501;28;20028;-70
2021/12/25 06:16:47;;;;;;;12.88;8.73;;;;;;;7.18;100.00;99440.88;5094104;28;20034;-70
2021/12/25 06:19:12;;;;;;;10.93;7.63;;;;;;;7.08;100.00;99424.84;5093281;28;20123;-70
2021/12/25 06:21:38;;;;;;;10.18;7.22;;;;;;;7.11;100.00;99435.25;5094639;28;20114;-70
2021/12/25 06:24:05;;;;;;;10.32;7.03;;;;;;;7.18;100.00;99454.19;5100356;28;20023;-70
2021/12/25 06:26:31;;;;;;;9.32;6.75;;;;;;;7.25;100.00;99468.72;5103155;28;20503;-70
2021/12/25 06:28:57;;;;;;;8.57;6.75;;;;;;;7.12;100.00;99468.09;5100798;28;20115;-71
2021/12/25 06:31:23;;;;;;;9.10;6.78;;;;;;;7.16;100.00;99486.31;5092006;28;20479;-69
2021/12/25 06:33:49;;;;;;;10.45;6.50;;;;;;;7.20;100.00;99495.78;5098030;28;20023;-70
2021/12/25 06:36:15;;;;;;;10.35;7.22;;;;;;;7.19;100.00;99502.06;5093389;28;20121;-70
2021/12/25 06:38:41;;;;;;;10.48;7.75;;;;;;;7.14;100.00;99500.78;5104038;28;20020;-70
2021/12/25 06:41:07;;;;;;;11.85;7.30;;;;;;;7.16;100.00;99504.16;5095982;28;20051;-70
2021/12/25 06:43:34;;;;;;;10.80;8.18;;;;;;;7.18;100.00;99520.84;5098752;28;20024;-70
2021/12/25 06:46:00;;;;;;;11.05;7.50;;;;;;;7.16;100.00;99534.31;5096012;28;20073;-70
2021/12/25 06:48:26;;;;;;;11.07;7.82;;;;;;;7.12;100.00;99526.75;5102217;28;20516;-69
2021/12/25 06:50:52;;;;;;;10.95;7.53;;;;;;;7.09;100.00;99517.16;5102847;28;20048;-70
2021/12/25 06:53:17;;;;;;;10.43;7.07;;;;;;;7.08;100.00;99526.16;5096870;28;20375;-71
2021/12/25 06:55:43;;;;;;;11.48;7.45;;;;;;;7.01;100.00;99514.34;5099348;28;20494;-72
2021/12/25 06:58:08;;;;;;;10.85;7.60;;;;;;;7.02;100.00;99525.84;5096330;28;20099;-71
2021/12/25 07:00:34;;;;;;;9.57;7.28;;;;;;;6.97;100.00;99529.72;5102084;28;20032;-70
2021/12/25 07:02:59;;;;;;;12.40;9.10;;;;;;;6.91;100.00;99511.59;5094915;28;20058;-71
2021/12/25 07:05:25;;;;;;;13.55;8.45;;;;;;;6.84;100.00;99491.78;5096503;28;20529;-71
2021/12/25 07:07:51;;;;;;;11.48;8.43;;;;;;;6.83;100.00;99492.75;5099622;28;20428;-71
2021/12/25 07:10:18;;;;;;;11.48;7.88;;;;;;;6.82;100.00;99492.91;5101116;28;20039;-70
2021/12/25 07:12:46;;;;;;;13.95;7.93;;;;;;;6.81;100.00;99507.22;5096027;28;20055;-71
2021/12/25 07:15:13;;;;;;;11.55;8.13;;;;;;;6.87;100.00;99523.50;5098143;28;20442;-71
2021/12/25 07:17:39;;;;;;;13.00;8.65;;;;;;;6.86;100.00;99521.81;5092322;28;20031;-71
2021/12/25 07:20:05;;;;;;;12.25;8.55;;;;;;;6.83;100.00;99515.91;5090066;28;20024;-69
2021/12/25 07:22:30;;;;;;;13.43;8.55;;;;;;;6.81;100.00;99508.03;5102404;28;20040;-70
2021/12/25 07:24:55;;;;;;;15.60;9.40;;;;;;;6.88;100.00;99516.38;5096978;28;20107;-71
2021/12/25 07:27:21;;;;;;;12.95;8.13;;;;;;;6.92;100.00;99521.31;5092645;28;20111;-72
2021/12/25 07:29:47;;;;;;;13.13;8.82;;;;;;;6.95;100.00;99520.19;5103054;27;20027;-70
2021/12/25 07:32:12;;;;;;;12.65;8.48;;;;;;;6.95;100.00;99512.19;5105210;28;20038;-71
2021/12/25 07:34:37;;;;;;;13.10;8.35;;;;;;;7.04;100.00;99522.91;5106530;27;20027;-70
2021/12/25 07:37:03;;;;;;;15.68;8.82;;;;;;;7.02;100.00;99512.53;5101297;28;20024;-70
2021/12/25 07:39:29;;;;;;;13.10;9.40;;;;;;;7.04;100.00;99512.22;5091427;28;20043;-69
2021/12/25 07:41:55;;;;;;;13.00;9.05;;;;;;;7.13;100.00;99507.94;5099876;28;20105;-70
2021/12/25 07:44:20;;;;;;;12.00;8.82;;;;;;;7.16;100.00;99528.16;5096452;28;20028;-70
2021/12/25 07:46:47;;;;;;;13.27;9.35;;;;;;;7.18;100.00;99526.19;5099490;28;20023;-70
2021/12/25 07:49:18;;;;;;;16.98;11.07;;;;;;;7.19;100.00;99525.25;5099723;28;20035;-70
2021/12/25 07:51:44;;;;;;;14.35;10.23;;;;;;;7.22;100.00;99530.31;5101396;28;20054;-70
2021/12/25 07:54:10;;;;;;;18.27;11.13;;;;;;;7.25;100.00;99544.19;5100869;28;20483;-70
2021/12/25 07:56:35;;;;;;;16.30;10.32;;;;;;;7.22;100.00;99540.97;5092841;28;20336;-71
2021/12/25 07:59:01;;;;;;;17.52;11.07;;;;;;;7.21;100.00;99539.25;5094057;27;20372;-69
2021/12/25 08:01:26;;;;;;;15.05;10.80;;;;;;;7.20;100.00;99541.09;5102491;28;20128;-70
2021/12/25 08:03:52;;;;;;;16.42;11.15;;;;;;;7.22;100.00;99544.47;5098151;27;20502;-70
2021/12/25 08:06:17;;;;;;;16.40;12.02;;;;;;;7.24;100.00;99539.00;5095519;28;20360;-69
2021/12/25 08:08:43;;;;;;;16.98;12.40;;;;;;;7.24;100.00;99531.84;5099234;27;20044;-70
2021/12/25 08:11:09;;;;;;;21.35;13.13;;;;;;;7.24;100.00;99537.19;5095574;28;20024;-71
2021/12/25 08:13:35;;;;;;;22.63;16.15;;;;;;;7.21;100.00;99523.25;5102448;28;20028;-70
2021/12/25 08:16:00;;;;;;;27.17;17.30;;;;;;;7.29;100.00;99526.97;5102143;28;20368;-71
2021/12/25 08:18:26;;;;;;;32.38;19.77;;;;;;;7.22;100.00;99515.13;5103186;28;20028;-70
2021/12/25 08:20:51;;;;;;;28.60;19.33;;;;;;;7.34;100.00;99539.88;5096728;27;20054;-71
2021/12/25 08:23:17;;;;;;;34.30;20.25;;;;;;;7.31;100.00;99518.81;5106361;28;20032;-71
2021/12/25 08:25:42;;;;;;;30.77;19.10;;;;;;;7.43;100.00;99529.28;5099678;27;20070;-71
2021/12/25 08:28:09;;;;;;;32.00;18.30;;;;;;;7.53;100.00;99526.63;5102594;28;20035;-70
2021/12/25 08:30:35;;;;;;;23.75;16.38;;;;;;;7.54;100.00;99513.16;5096892;28;20040;-71
2021/12/25 08:33:01;;;;;;;26.45;16.95;;;;;;;7.70;100.00;99518.00;5093085;28;20016;-69
2021/12/25 08:35:28;;;;;;;24.23;14.95;;;;;;;7.78;100.00;99513.69;5096120;28;20028;-71
2021/12/25 08:37:54;;;;;;;17.40;11.85;;;;;;;7.91;100.00;99518.75;5099434;28;20542;-71
2021/12/25 08:40:20;;;;;;;18.63;12.48;;;;;;;7.93;100.00;99511.47;5103464;27;20055;-72
2021/12/25 08:42:51;;;;;;;20.45;11.90;;;;;;;8.13;100.00;99523.84;5097079;28;20024;-70
2021/12/25 08:46:02;;;;;;;15.93;10.95;;;;;;;8.22;100.00;99507.84;5097656;28;20061;-69
2021/12/25 08:48:21;;;;;;;16.80;11.73;;;;;;;8.40;100.00;99508.00;5098655;28;20046;-71
2021/12/25 08:50:53;;;;;;;17.00;11.60;;;;;;;8.54;100.00;99511.09;5105845;27;20048;-69
2021/12/25 08:53:21;;;;;;;17.95;11.27;;;;;;;8.69;100.00;99516.84;5092201;28;20024;-71
2021/12/25 08:55:48;;;;;;;14.75;11.07;;;;;;;8.75;100.00;99493.09;5102619;28;20032;-72
2021/12/25 08:58:14;;;;;;;16.02;11.73;;;;;;;8.95;100.00;99499.22;5098045;28;20043;-70
2021/12/25 09:00:40;;;;;;;16.95;11.00;;;;;;;9.05;100.00;99500.03;5101963;28;20432;-71
2021/12/25 09:03:06;;;;;;;12.98;9.18;;;;;;;9.16;100.00;99492.69;5091549;28;20059;-70
2021/12/25 09:05:33;;;;;;;10.63;7.70;;;;;;;9.32;100.00;99498.25;5097740;28;20474;-71
2021/12/25 09:07:59;;;;;;;11.48;7.95;;;;;;;9.42;100.00;99492.88;5095794;27;20036;-70
2021/12/25 09:10:28;;;;;;;12.15;8.35;;;;;;;9.55;100.00;99488.03;5101834;28;20047;-71
2021/12/25 09:12:54;;;;;;;10.13;6.97;;;;;;;9.67;100.00;99477.97;5099859;28;20420;-70
2021/12/25 09:15:19;;;;;;;9.30;6.90;;;;;;;9.81;100.00;99490.84;5099403;28;20018;-71
2021/12/25 09:17:46;;;;;;;9.60;7.63;;;;;;;9.83;100.00;99480.81;5096072;27;20186;-71
2021/12/25 09:20:15;;;;;;;9.40;6.97;;;;;;;9.92;100.00;99470.03;5092355;28;20027;-69
2021/12/25 09:22:40;;;;;;;9.15;7.05;;;;;;;10.01;100.00;99470.97;5096644;28;20085;-69
2021/12/25 09:25:06;;;;;;;11.60;7.28;;;;;;;10.09;100.00;99469.25;5097349;28;20024;-71
2021/12/25 09:27:32;;;;;;;9.50;6.53;;;;;;;10.20;100.00;99470.84;5099887;28;20082;-70
2021/12/25 09:29:58;;;;;;;8.93;6.30;;;;;;;10.23;99.67;99454.47;5105654;27;20039;-70
2021/12/25 09:32:24;;;;;;;12.32;6.65;;;;;;;10.30;99.27;99458.22;5102752;28;20028;-70
2021/12/25 09:34:49;;;;;;;9.35;6.30;;;;;;;10.30;98.52;99447.50;5099587;28;20595;-72
2021/12/25 09:37:18;;;;;;;9.65;7.22;;;;;;;10.37;97.92;99446.72;5098657;28;20028;-69
2021/12/25 09:39:44;;;;;;;11.35;6.97;;;;;;;10.40;97.68;99448.25;5094735;27;20395;-70
2021/12/25 09:42:10;;;;;;;9.63;6.65;;;;;;;10.44;97.08;99450.47;5105841;28;20038;-70
2021/12/25 09:44:36;;;;;;;8.23;5.93;;;;;;;10.48;96.51;99453.69;5091893;28;20083;-69
2021/12/25 09:47:02;;;;;;;9.65;7.20;;;;;;;10.51;95.96;99456.06;5101789;28;20035;-69
2021/12/25 09:49:28;;;;;;;9.23;6.70;;;;;;;10.52;95.87;99460.44;5099184;28;20036;-69
2021/12/25 09:51:53;;;;;;;8.18;6.60;;;;;;;10.53;95.15;99457.59;5100628;28;20050;-68
2021/12/25 09:54:20;;;;;;;9.90;7.20;;;;;;;10.55;95.37;99454.75;5093908;28;20070;-68
2021/12/25 09:56:48;;;;;;;8.05;6.60;;;;;;;10.52;95.40;99447.03;5093373;27;20545;-69
2021/12/25 09:59:14;;;;;;;11.13;7.65;;;;;;;10.54;95.23;99448.53;5094352;28;20051;-68
2021/12/25 10:01:50;;;;;;;9.43;7.45;;;;;;;10.60;95.16;99450.59;5097842;28;20593;-70
2021/12/25 10:04:41;;;;;;;12.05;7.93;;;;;;;10.61;95.15;99441.56;5096907;28;20045;-68
2021/12/25 10:07:21;;;;;;;10.95;7.20;;;;;;;10.58;95.02;99441.03;5090868;28;20146;-69
2021/12/25 10:10:05;;;;;;;10.98;7.45;;;;;;;10.62;95.24;99445.94;5096009;28;20462;-68
2021/12/25 10:12:40;;;;;;;9.38;7.00;;;;;;;10.57;95.29;99437.50;5096746;28;20082;-69
2021/12/25 10:15:09;;;;;;;9.07;6.90;;;;;;;10.59;95.62;99434.69;5086339;28;20031;-69
2021/12/25 10:17:43;;;;;;;11.13;7.32;;;;;;;10.57;95.62;99429.47;5091955;27;20035;-69
2021/12/25 10:20:12;;;;;;;10.70;7.38;;;;;;;10.66;95.81;99433.06;5094431;28;20055;-67
2021/12/25 10:23:14;;;;;;;10.50;7.00;;;;;;;10.74;95.27;99438.47;5082655;28;20024;-68
2021/12/25 10:25:46;;;;;;;8.32;6.05;;;;;;;10.76;94.69;99433.78;5060410;28;20043;-68
2021/12/25 10:28:14;;;;;;;7.95;6.15;;;;;;;10.75;94.51;99426.75;5093916;28;20236;-68
2021/12/25 10:31:04;;;;;;;9.13;6.15;;;;;;;10.76;93.81;99429.28;5096646;28;20039;-68
2021/12/25 10:33:35;;;;;;;7.68;5.80;;;;;;;10.83;93.05;99429.47;5092996;28;20039;-68
2021/12/25 10:36:10;;;;;;;10.07;6.47;;;;;;;10.79;92.66;99428.09;5086897;28;20439;-68
2021/12/25 10:38:37;;;;;;;9.52;6.43;;;;;;;10.88;92.81;99440.56;5087664;28;20080;-67
2021/12/25 10:41:10;;;;;;;8.75;6.05;;;;;;;10.92;92.56;99433.88;5087002;28;20061;-68
2021/12/25 10:43:41;;;;;;;9.10;6.55;;;;;;;11.00;91.65;99418.69;5095781;28;20088;-67
2021/12/25 10:46:07;;;;;;;10.90;6.85;;;;;;;10.94;91.92;99408.59;5099542;28;20379;-67
2021/12/25 10:48:32;;;;;;;10.15;6.85;;;;;;;11.01;91.09;99398.91;5102137;27;20043;-68
2021/12/25 10:50:59;;;;;;;9.32;6.75;;;;;;;11.08;90.49;99402.66;5100775;28;20090;-68
2021/12/25 10:53:31;;;;;;;9.52;5.93;;;;;;;11.10;90.65;99416.72;5088326;28;20040;-68
2021/12/25 10:56:12;;;;;;;7.78;6.00;;;;;;;11.14;90.01;99412.75;5098406;28;20567;-68
2021/12/25 10:58:40;;;;;;;9.63;6.50;;;;;;;11.17;89.26;99415.09;5095192;28;20074;-67
2021/12/25 11:01:08;;;;;;;8.10;5.78;;;;;;;11.17;89.54;99416.94;5100057;28;20035;-68
2021/12/25 11:03:37;;;;;;;7.35;5.72;;;;;;;11.20;89.47;99406.72;5090769;28;20035;-68
2021/12/25 11:06:08;;;;;;;9.07;6.72;;;;;;;11.18;89.57;99397.13;5105740;28;20028;-69
2021/12/25 11:08:35;;;;;;;9.32;6.75;;;;;;;11.23;89.14;99401.00;5097429;27;20631;-67
2021/12/25 11:11:12;;;;;;;8.68;6.07;;;;;;;11.23;88.67;99390.28;5096959;28;20091;-68
2021/12/25 11:13:38;;;;;;;9.20;6.43;;;;;;;11.27;88.30;99401.53;5094994;28;20432;-68
2021/12/25 11:16:16;;;;;;;11.18;6.50;;;;;;;11.34;88.11;99394.53;5103915;27;20035;-68
2021/12/25 11:19:11;;;;;;;10.02;6.13;;;;;;;11.35;88.27;99394.38;5105842;28;20028;-69
2021/12/25 11:21:36;;;;;;;9.52;5.70;;;;;;;11.38;88.41;99377.09;5098006;28;20024;-68
2021/12/25 11:24:06;;;;;;;13.98;8.75;;;;;;;11.46;88.12;99375.28;5105680;28;20507;-68
2021/12/25 11:26:32;;;;;;;9.88;6.50;;;;;;;11.48;87.08;99372.41;5100410;27;20462;-69
2021/12/25 11:28:57;;;;;;;10.98;6.70;;;;;;;11.49;86.63;99366.06;5100380;28;20063;-69
2021/12/25 11:31:23;;;;;;;7.82;5.85;;;;;;;11.58;86.42;99371.28;5093939;28;20051;-68
2021/12/25 11:33:50;;;;;;;7.50;5.68;;;;;;;11.60;85.77;99365.75;5099903;28;20050;-68
2021/12/25 11:36:17;;;;;;;10.30;5.32;;;;;;;11.63;85.04;99361.91;5103397;28;20031;-68
2021/12/25 11:38:43;;;;;;;7.68;5.10;;;;;;;11.60;85.07;99348.81;5098148;28;20031;-68
2021/12/25 11:41:10;;;;;;;9.27;5.55;;;;;;;11.75;84.85;99364.16;5103321;27;20047;-67
2021/12/25 11:43:43;;;;;;;7.65;5.18;;;;;;;11.75;84.65;99363.28;5099299;27;20636;-68
2021/12/25 11:46:09;;;;;;;6.22;4.70;;;;;;;11.83;84.67;99372.19;5097677;28;20039;-68
2021/12/25 11:48:37;;;;;;;6.25;4.60;;;;;;;11.92;82.93;99373.03;5092452;28;20398;-68
2021/12/25 11:51:03;;;;;;;6.30;4.53;;;;;;;11.92;82.32;99360.47;5098018;28;20388;-69
2021/12/25 11:58:50;;;;;;;8.27;5.40;;;;;;;11.92;82.80;99356.94;5105657;28;20043;-70
2021/12/25 12:01:27;;;;;;;7.68;5.53;;;;;;;12.00;82.68;99357.81;5098458;28;20072;-69
2021/12/25 12:04:10;;;;;;;6.38;5.15;;;;;;;11.99;82.43;99348.03;5096107;28;20486;-71
2021/12/25 12:06:48;;;;;;;6.97;5.00;;;;;;;12.01;82.51;99347.88;5092149;28;20067;-71
2021/12/25 12:09:19;;;;;;;6.30;4.85;;;;;;;12.00;83.08;99344.38;5096184;28;20073;-71
2021/12/25 12:12:04;;;;;;;8.48;5.22;;;;;;;12.05;82.66;99352.75;5089919;28;20036;-72
2021/12/25 12:14:31;;;;;;;8.23;5.38;;;;;;;12.01;83.17;99347.88;5096952;28;20047;-71
2021/12/25 12:17:04;;;;;;;7.57;5.50;;;;;;;12.10;81.93;99350.41;5097374;28;20445;-70
2021/12/25 12:19:30;;;;;;;7.53;5.40;;;;;;;12.14;82.76;99359.81;5102020;28;20050;-71
2021/12/25 12:21:57;;;;;;;9.20;6.00;;;;;;;12.04;82.19;99337.63;5094489;28;20039;-70
2021/12/25 12:24:44;;;;;;;7.22;5.32;;;;;;;12.10;82.62;99338.81;5092210;28;20383;-70
2021/12/25 12:27:10;;;;;;;7.60;5.00;;;;;;;12.15;82.35;99347.22;5101530;28;20038;-71
2021/12/25 12:29:38;;;;;;;6.63;5.28;;;;;;;12.13;82.86;99341.16;5093474;27;20483;-71
2021/12/25 12:32:35;;;;;;;8.07;6.15;;;;;;;12.10;83.08;99347.72;5092564;28;20035;-71
2021/12/25 12:35:02;;;;;;;8.52;5.80;;;;;;;12.13;82.32;99335.78;5089877;28;20098;-70
2021/12/25 12:37:32;;;;;;;7.65;6.13;;;;;;;12.07;82.77;99337.31;5090467;28;20115;-71
2021/12/25 12:40:03;;;;;;;8.45;6.10;;;;;;;12.12;82.54;99339.50;5096222;28;20048;-71
2021/12/25 12:42:41;;;;;;;7.40;5.57;;;;;;;12.16;82.57;99344.34;5096808;28;20039;-71
2021/12/25 12:45:33;;;;;;;7.15;5.30;;;;;;;12.17;82.32;99332.59;5092091;28;20483;-71
2021/12/25 12:48:19;;;;;;;7.65;5.63;;;;;;;12.17;82.65;99331.75;5096337;28;20063;-71
2021/12/25 12:50:53;;;;;;;8.73;6.07;;;;;;;12.17;82.99;99321.00;5103511;27;20039;-71
2021/12/25 12:53:21;;;;;;;8.45;5.90;;;;;;;12.13;81.92;99320.50;5095997;28;20020;-71